Time;durP1;ratioP1;P1;durP2;ratioP2;P2;SDS_P1;SDS_P2;PMS_P1;PMS_P2;Temp;Humidity;BMP_temperature;BMP_pressure;BME280_temperature;BME280_humidity;BME280_pressure;Samples;Min_cycle;Max_cycle;Signal;HPM_P1;HPM_P2
2023/07/09 00:00:24;;;;;;;2.92;2.70;;;;;;;29.04;52.85;100886.41;5058254;28;66215;-46
2023/07/09 00:02:56;;;;;;;12.53;3.00;;;;;;;29.18;53.79;100910.50;5059252;28;70172;-47
2023/07/09 00:05:27;;;;;;;3.07;2.80;;;;;;;29.17;54.10;100913.44;5056169;28;66252;-46
2023/07/09 00:08:00;;;;;;;3.17;2.97;;;;;;;29.20;53.91;100907.63;5055405;28;70978;-47
2023/07/09 00:10:31;;;;;;;6.55;3.00;;;;;;;29.25;54.31;100905.09;5055278;28;65926;-46
2023/07/09 00:13:02;;;;;;;3.60;3.40;;;;;;;29.31;54.88;100909.69;5058064;28;69863;-48
2023/07/09 00:15:34;;;;;;;7.45;3.25;;;;;;;29.37;55.04;100913.41;5056480;28;66357;-48
2023/07/09 00:18:05;;;;;;;5.70;3.40;;;;;;;29.43;55.43;100917.16;5053390;28;69979;-49
2023/07/09 00:20:35;;;;;;;4.85;4.18;;;;;;;29.46;54.89;100922.13;5056040;28;65420;-48
2023/07/09 00:23:06;;;;;;;4.90;4.20;;;;;;;29.45;56.03;100925.84;5041224;28;70250;-46
2023/07/09 00:25:38;;;;;;;3.65;3.45;;;;;;;29.49;55.80;100922.53;5055994;28;65846;-46
2023/07/09 00:28:18;;;;;;;4.07;3.78;;;;;;;29.07;56.89;100849.00;5044780;28;43729;-47
2023/07/09 00:30:50;;;;;;;5.88;4.40;;;;;;;29.57;57.22;100925.03;5055373;28;65574;-45
2023/07/09 00:33:21;;;;;;;4.20;3.90;;;;;;;29.57;58.05;100925.03;5038304;28;69401;-46
2023/07/09 00:35:52;;;;;;;5.93;3.95;;;;;;;29.67;57.30;100919.22;5056444;28;66396;-57
2023/07/09 00:38:24;;;;;;;21.55;3.90;;;;;;;29.66;57.96;100914.84;5058668;28;70431;-46
2023/07/09 00:41:05;;;;;;;23.80;4.20;;;;;;;29.69;62.32;100929.81;5038691;28;66008;-43
2023/07/09 00:43:37;;;;;;;17.27;6.05;;;;;;;29.73;69.11;100918.38;5055661;28;70151;-43
2023/07/09 00:46:27;;;;;;;13.88;7.00;;;;;;;29.80;71.72;100930.00;5054998;28;65952;-45
2023/07/09 00:49:08;;;;;;;9.25;6.90;;;;;;;29.80;73.17;100930.00;5057125;28;67029;-44
2023/07/09 00:51:45;;;;;;;16.88;7.22;;;;;;;29.77;71.52;100894.44;5057502;28;66384;-46
2023/07/09 00:54:32;;;;;;;7.60;5.72;;;;;;;29.98;65.77;100920.41;5039775;28;70590;-45
2023/07/09 00:57:26;;;;;;;6.50;6.00;;;;;;;29.44;64.84;100843.13;5050961;28;65578;-45
2023/07/09 01:00:12;;;;;;;6.53;5.85;;;;;;;30.14;64.68;100941.53;5058589;28;69446;-45
2023/07/09 01:02:48;;;;;;;6.93;5.70;;;;;;;30.26;65.04;100950.69;5060483;28;66452;-46
2023/07/09 01:05:19;;;;;;;7.38;6.07;;;;;;;30.26;64.76;100937.16;5058595;28;69162;-46
2023/07/09 01:07:53;;;;;;;7.50;5.70;;;;;;;30.28;65.13;100940.50;5037816;28;66528;-46
2023/07/09 01:10:24;;;;;;;7.18;5.63;;;;;;;30.25;64.54;100926.53;5053336;28;70060;-45
2023/07/09 01:12:55;;;;;;;6.73;6.00;;;;;;;30.17;73.36;100929.44;5053098;28;66125;-45
2023/07/09 01:15:26;;;;;;;5.85;5.35;;;;;;;30.21;73.73;100931.53;5028664;28;70033;-45
2023/07/09 01:17:58;;;;;;;6.03;5.53;;;;;;;30.21;74.17;100923.41;5053592;28;66003;-45
2023/07/09 01:20:29;;;;;;;6.73;6.13;;;;;;;30.10;74.44;100902.44;5046119;28;70095;-43
2023/07/09 01:23:00;;;;;;;7.75;5.63;;;;;;;29.79;75.69;100841.81;5037007;28;66677;-43
2023/07/09 01:25:34;;;;;;;9.82;5.70;;;;;;;30.28;75.67;100921.53;5036300;28;70641;-42
2023/07/09 01:28:06;;;;;;;9.55;5.55;;;;;;;30.24;76.40;100912.19;5037693;28;66156;-43
2023/07/09 01:30:41;;;;;;;6.70;5.33;;;;;;;30.39;76.28;100948.97;5017442;28;70022;-44
2023/07/09 01:33:12;;;;;;;6.03;5.53;;;;;;;30.33;76.75;100920.06;5037313;28;66110;-44
2023/07/09 01:35:43;;;;;;;13.57;6.53;;;;;;;30.36;76.83;100925.03;5039256;28;70187;-43
2023/07/09 01:38:16;;;;;;;;;;;;;;;30.27;77.40;100936.09;5034652;28;65986;-43
2023/07/09 01:40:47;;;;;;;8.47;7.63;;;;;;;29.86;76.09;100846.34;5031929;28;70074;-45
2023/07/09 01:43:18;;;;;;;12.25;8.13;;;;;;;30.54;75.29;100952.22;5037313;28;65934;-46
2023/07/09 01:45:50;;;;;;;9.15;7.25;;;;;;;30.56;74.06;100946.59;5036758;28;70015;-46
2023/07/09 01:48:21;;;;;;;;;;;;;;;30.37;77.20;100957.31;5034926;28;66281;-44
2023/07/09 01:50:53;;;;;;;8.23;7.15;;;;;;;30.63;75.74;100950.09;5035155;28;70653;-45
2023/07/09 01:53:30;;;;;;;9.70;7.00;;;;;;;30.67;75.55;100952.16;5035188;28;66676;-44
2023/07/09 01:56:02;;;;;;;8.00;6.38;;;;;;;30.73;74.37;100959.41;5035936;28;70963;-45
2023/07/09 01:58:35;;;;;;;7.53;6.47;;;;;;;30.66;75.72;100939.66;5050642;28;66932;-44
2023/07/09 02:01:06;;;;;;;7.18;6.32;;;;;;;30.74;74.51;100946.69;5034062;28;70080;-44
2023/07/09 02:03:37;;;;;;;5.93;5.47;;;;;;;30.85;74.24;100959.56;5047404;28;66476;-45
2023/07/09 02:06:10;;;;;;;10.77;6.78;;;;;;;30.83;75.99;100967.06;5038163;28;70823;-45
2023/07/09 02:08:42;;;;;;;11.73;5.97;;;;;;;30.44;75.88;100900.44;5039561;28;66304;-45
2023/07/09 02:11:12;;;;;;;7.30;5.77;;;;;;;30.41;76.54;100885.44;5037268;28;70229;-45
2023/07/09 02:13:43;;;;;;;6.20;5.60;;;;;;;30.72;76.78;100927.94;5034830;28;66290;-46
2023/07/09 02:16:15;;;;;;;13.75;5.47;;;;;;;30.76;76.96;100938.34;5038553;28;69459;-44
2023/07/09 02:18:46;;;;;;;8.27;5.25;;;;;;;30.91;76.49;100960.56;5050250;28;66358;-45
2023/07/09 02:21:17;;;;;;;7.63;5.87;;;;;;;30.93;76.84;100958.47;5042703;28;70431;-45
2023/07/09 02:23:48;;;;;;;8.00;6.10;;;;;;;30.99;73.21;100940.53;5059722;28;66958;-44
2023/07/09 02:26:19;;;;;;;6.88;5.32;;;;;;;31.06;72.52;100944.00;5060534;28;69814;-44
2023/07/09 02:28:51;;;;;;;8.43;4.53;;;;;;;31.17;71.83;100956.81;5060271;28;66511;-44
2023/07/09 02:31:22;;;;;;;6.25;4.88;;;;;;;31.22;71.11;100948.03;5034666;28;70891;-44
2023/07/09 02:33:54;;;;;;;;;;;;;;;30.92;73.17;100954.09;5056902;28;66523;-45
2023/07/09 02:36:25;;;;;;;5.05;4.57;;;;;;;31.18;70.56;100942.25;5061235;28;70688;-45
2023/07/09 02:38:55;;;;;;;5.55;4.57;;;;;;;31.31;70.79;100952.13;5060227;28;65377;-44
2023/07/09 02:41:27;;;;;;;5.10;4.70;;;;;;;31.33;70.24;100948.16;5052399;28;69314;-46
2023/07/09 02:43:58;;;;;;;4.93;4.50;;;;;;;31.32;70.56;100937.56;5024251;28;66266;-45
2023/07/09 02:46:29;;;;;;;4.20;3.90;;;;;;;31.40;70.10;100940.00;5065993;28;70120;-46
2023/07/09 02:49:01;;;;;;;4.47;3.90;;;;;;;31.46;70.00;100943.72;5040480;28;66312;-44
2023/07/09 02:51:33;;;;;;;5.25;3.97;;;;;;;31.46;69.89;100938.28;5044460;28;70251;-45
2023/07/09 02:54:06;;;;;;;4.50;4.20;;;;;;;31.05;69.59;100861.91;5043966;28;66704;-44
2023/07/09 02:56:37;;;;;;;7.47;4.10;;;;;;;31.53;69.45;100929.00;5024144;28;69771;-44
2023/07/09 02:59:08;;;;;;;3.72;3.42;;;;;;;31.56;69.21;100930.44;5065292;28;66225;-45
2023/07/09 03:01:39;;;;;;;3.53;3.33;;;;;;;31.43;69.13;100898.06;5048292;28;69938;-45
2023/07/09 03:04:11;;;;;;;5.97;3.45;;;;;;;31.61;69.14;100928.72;5059819;28;66141;-45
2023/07/09 03:06:42;;;;;;;4.45;4.07;;;;;;;31.63;69.13;100931.22;5042009;28;69297;-45
2023/07/09 03:09:13;;;;;;;3.90;3.60;;;;;;;31.58;68.96;100914.81;5060587;28;66608;-45
2023/07/09 03:11:44;;;;;;;3.85;3.53;;;;;;;31.68;68.79;100930.53;5053655;28;69672;-45
2023/07/09 03:14:16;;;;;;;3.53;3.33;;;;;;;31.66;68.74;100910.97;5055126;28;66359;-44
2023/07/09 03:16:47;;;;;;;3.92;3.67;;;;;;;31.74;68.76;100918.81;5058483;28;69273;-44
2023/07/09 03:19:18;;;;;;;4.07;2.80;;;;;;;31.77;68.35;100910.22;5057710;28;66309;-44
2023/07/09 03:21:49;;;;;;;3.13;2.92;;;;;;;31.39;68.28;100846.16;5059496;28;70328;-45
2023/07/09 03:24:20;;;;;;;2.97;2.78;;;;;;;31.71;68.33;100884.84;5054276;28;65861;-45
2023/07/09 03:26:51;;;;;;;2.87;2.67;;;;;;;31.85;68.08;100893.66;5057964;28;70358;-45
2023/07/09 03:29:23;;;;;;;3.35;3.10;;;;;;;31.83;68.08;100893.03;5059814;28;67357;-45
2023/07/09 03:31:54;;;;;;;4.00;3.20;;;;;;;31.92;68.09;100893.59;5060090;28;70014;-46
2023/07/09 03:34:25;;;;;;;4.82;3.53;;;;;;;31.90;67.80;100888.38;5059804;28;65647;-45
2023/07/09 03:36:56;;;;;;;3.42;3.13;;;;;;;31.95;67.81;100888.53;5060045;28;69529;-45
2023/07/09 03:39:28;;;;;;;2.92;2.65;;;;;;;31.98;67.77;100877.25;5059288;28;66405;-44
2023/07/09 03:41:59;;;;;;;2.83;2.63;;;;;;;31.91;67.43;100859.34;5060659;28;70125;-45
2023/07/09 03:44:30;;;;;;;3.60;3.15;;;;;;;32.01;67.33;100874.06;5059629;28;66608;-45
2023/07/09 03:47:01;;;;;;;2.75;2.55;;;;;;;31.92;67.59;100859.16;5053891;28;69053;-44
2023/07/09 03:49:32;;;;;;;3.08;2.78;;;;;;;32.09;66.86;100878.34;5055068;28;66143;-44
2023/07/09 03:52:03;;;;;;;2.75;2.55;;;;;;;32.10;66.89;100868.34;5055723;28;70887;-45
2023/07/09 03:54:34;;;;;;;2.70;2.50;;;;;;;32.09;66.77;100858.53;5052715;28;65859;-45
2023/07/09 03:57:06;;;;;;;3.50;2.45;;;;;;;32.14;66.87;100855.94;5054409;28;69117;-45
2023/07/09 03:59:40;;;;;;;2.50;2.10;;;;;;;32.19;66.63;100862.34;5055351;28;66638;-45
2023/07/09 04:02:11;;;;;;;2.60;2.40;;;;;;;32.19;66.60;100856.91;5056400;28;70837;-44
2023/07/09 04:04:42;;;;;;;2.80;2.60;;;;;;;32.14;66.45;100842.38;5039553;28;65955;-45
2023/07/09 04:07:13;;;;;;;2.63;2.43;;;;;;;32.24;66.31;100853.53;5053400;28;70316;-45
2023/07/09 04:09:44;;;;;;;2.60;2.22;;;;;;;32.26;66.07;100843.25;5055371;28;65888;-41
2023/07/09 04:12:15;;;;;;;3.08;2.75;;;;;;;31.93;67.05;100830.13;5053440;28;70112;-43
2023/07/09 04:14:46;;;;;;;5.35;3.15;;;;;;;31.85;67.87;100825.00;5054887;28;66496;-44
2023/07/09 04:17:18;;;;;;;4.40;2.13;;;;;;;31.82;68.57;100835.25;5054952;28;70102;-46
2023/07/09 04:19:53;;;;;;;4.53;2.33;;;;;;;31.80;68.95;100820.25;5054648;28;66067;-45
2023/07/09 04:22:24;;;;;;;2.72;2.53;;;;;;;31.61;68.82;100784.19;5055797;28;70583;-45
2023/07/09 04:24:54;;;;;;;3.03;1.90;;;;;;;31.82;69.02;100801.88;5056180;28;65329;-45
2023/07/09 04:27:28;;;;;;;2.40;2.10;;;;;;;31.81;69.33;100805.63;5056116;28;70082;-46
2023/07/09 04:29:59;;;;;;;2.60;2.15;;;;;;;31.76;69.62;100792.78;5053227;28;65824;-45
2023/07/09 04:32:31;;;;;;;2.72;2.22;;;;;;;31.81;69.61;100792.88;5052520;28;69141;-47
2023/07/09 04:35:02;;;;;;;2.83;2.53;;;;;;;31.86;69.44;100791.41;5054684;28;65226;-46
2023/07/09 04:37:33;;;;;;;2.67;1.85;;;;;;;31.71;69.41;100767.41;5056365;28;69149;-45
2023/07/09 04:40:06;;;;;;;3.40;2.60;;;;;;;31.87;69.89;100788.44;5033506;28;66120;-44
2023/07/09 04:42:39;;;;;;;3.67;1.90;;;;;;;31.88;69.77;100784.69;5055167;28;70015;-45
2023/07/09 04:45:12;;;;;;;4.82;2.15;;;;;;;31.39;69.83;100699.81;5056374;28;65585;-45
2023/07/09 04:47:43;;;;;;;2.85;2.10;;;;;;;32.12;68.03;100761.19;5057572;28;69884;-44
2023/07/09 04:50:14;;;;;;;2.40;2.10;;;;;;;32.28;67.83;100770.56;5058085;28;66724;-46
2023/07/09 04:52:45;;;;;;;3.60;2.13;;;;;;;32.37;67.49;100776.47;5062081;28;70116;-45
2023/07/09 04:55:18;;;;;;;5.15;2.60;;;;;;;32.45;67.31;100771.53;5060055;28;66308;-45
2023/07/09 04:57:50;;;;;;;3.65;2.22;;;;;;;32.53;67.18;100780.44;5060086;28;69841;-45
2023/07/09 05:00:21;;;;;;;2.83;2.47;;;;;;;32.47;67.14;100760.47;5059910;28;66390;-47
2023/07/09 05:02:52;;;;;;;2.20;2.00;;;;;;;32.57;66.73;100776.19;5053167;28;70121;-45
2023/07/09 05:05:24;;;;;;;4.43;2.17;;;;;;;32.58;66.83;100767.00;5059265;28;66268;-45
2023/07/09 05:07:55;;;;;;;2.50;2.30;;;;;;;32.40;66.75;100736.13;5034701;28;69731;-46
2023/07/09 05:10:26;;;;;;;3.63;3.00;;;;;;;32.58;66.90;100756.94;5058387;28;66996;-43
2023/07/09 05:12:57;;;;;;;2.35;2.15;;;;;;;32.66;66.34;100774.78;5059916;28;69954;-44
2023/07/09 05:15:28;;;;;;;3.72;2.50;;;;;;;32.66;66.55;100769.38;5063176;28;65568;-43
2023/07/09 05:17:59;;;;;;;8.18;2.70;;;;;;;32.66;66.42;100769.38;5061340;28;70255;-44
2023/07/09 05:20:30;;;;;;;2.60;2.13;;;;;;;32.64;66.19;100766.03;5061508;28;66867;-44
2023/07/09 05:23:01;;;;;;;3.70;3.38;;;;;;;32.22;67.91;100764.19;5054186;28;69928;-45
2023/07/09 05:25:33;;;;;;;3.17;2.90;;;;;;;32.17;68.54;100765.94;5048973;28;65389;-45
2023/07/09 05:28:05;;;;;;;3.40;2.75;;;;;;;31.58;68.99;100666.19;5060499;28;71149;-44
2023/07/09 05:30:35;;;;;;;;;;;;;;;31.88;69.79;100768.41;5060474;28;66797;-45
2023/07/09 05:33:06;;;;;;;8.25;2.55;;;;;;;31.86;66.78;100762.38;5058150;28;70535;-47
2023/07/09 05:35:38;;;;;;;5.22;2.72;;;;;;;31.69;64.78;100747.81;5057139;28;65598;-48
2023/07/09 05:38:09;;;;;;;2.50;2.30;;;;;;;31.52;63.34;100743.00;5057694;28;68869;-49
2023/07/09 05:40:42;;;;;;;6.88;2.67;;;;;;;31.39;61.65;100733.16;5056702;28;66275;-45
2023/07/09 05:43:13;;;;;;;10.25;2.10;;;;;;;31.28;60.25;100735.78;5058928;28;70709;-44
2023/07/09 05:45:44;;;;;;;8.98;2.38;;;;;;;31.22;59.40;100737.50;5055376;28;66082;-49
2023/07/09 05:48:15;;;;;;;10.07;2.85;;;;;;;31.03;58.58;100723.13;5014856;28;70270;-45
2023/07/09 05:50:48;;;;;;;2.93;1.70;;;;;;;30.94;57.79;100719.88;5037984;28;67098;-45
2023/07/09 05:53:19;;;;;;;10.15;2.42;;;;;;;31.01;58.66;100735.22;5053087;28;70274;-45
2023/07/09 05:56:00;;;;;;;5.38;2.22;;;;;;;30.83;57.95;100727.94;5065416;28;65152;-47
2023/07/09 05:58:32;;;;;;;4.40;1.92;;;;;;;30.89;57.73;100748.69;5057734;28;70039;-47
2023/07/09 06:01:04;;;;;;;2.28;1.95;;;;;;;30.79;56.44;100759.19;5058473;28;66418;-47
2023/07/09 06:03:35;;;;;;;5.55;2.03;;;;;;;30.77;56.36;100782.94;5059830;28;70285;-47
2023/07/09 06:06:06;;;;;;;3.17;2.08;;;;;;;30.64;55.47;100784.72;5063372;28;67058;-49
2023/07/09 06:08:38;;;;;;;11.75;2.35;;;;;;;30.66;56.06;100796.16;5062016;28;70137;-47
2023/07/09 06:11:09;;;;;;;4.18;2.42;;;;;;;30.53;55.35;100780.00;5058214;28;66159;-47
2023/07/09 06:13:40;;;;;;;5.53;2.10;;;;;;;30.54;55.33;100787.09;5062963;28;70054;-50
2023/07/09 06:16:11;;;;;;;7.07;1.97;;;;;;;30.52;54.81;100780.25;5061396;28;65419;-54
2023/07/09 06:18:42;;;;;;;4.97;1.87;;;;;;;30.45;54.26;100791.09;5066527;28;69255;-53
2023/07/09 06:21:13;;;;;;;7.10;1.95;;;;;;;29.92;53.67;100721.09;5060822;28;66604;-54
2023/07/09 06:23:46;;;;;;;2.73;1.73;;;;;;;30.35;53.69;100809.72;5062643;28;69898;-52
2023/07/09 06:26:17;;;;;;;6.18;1.45;;;;;;;30.25;53.08;100786.66;5061855;28;65373;-53
2023/07/09 06:28:48;;;;;;;1.77;1.40;;;;;;;30.24;52.58;100793.13;5055129;28;70382;-54
2023/07/09 06:31:20;;;;;;;3.10;1.30;;;;;;;30.23;53.29;100794.19;5056271;28;65344;-50
2023/07/09 06:33:52;;;;;;;5.30;1.50;;;;;;;30.19;51.99;100798.31;5060516;28;70800;-49
2023/07/09 06:36:23;;;;;;;3.27;1.30;;;;;;;30.12;51.47;100775.91;5062355;28;66227;-51
2023/07/09 06:38:54;;;;;;;1.15;1.00;;;;;;;30.05;51.42;100748.06;5061625;28;69742;-51
2023/07/09 06:41:25;;;;;;;1.80;1.00;;;;;;;30.10;50.99;100734.72;5063194;28;66054;-52
2023/07/09 06:43:56;;;;;;;1.65;1.10;;;;;;;30.10;51.05;100740.13;5064163;28;69156;-53
2023/07/09 06:46:27;;;;;;;1.30;1.20;;;;;;;30.02;50.10;100746.63;5059093;28;66508;-52
2023/07/09 06:48:58;;;;;;;2.13;1.05;;;;;;;29.96;50.27;100744.78;5042276;28;70042;-51
2023/07/09 06:51:29;;;;;;;1.70;1.00;;;;;;;30.02;50.42;100743.09;5061815;28;66494;-50
2023/07/09 06:54:00;;;;;;;3.03;1.30;;;;;;;30.00;49.72;100758.69;5061142;28;70604;-52
2023/07/09 06:56:32;;;;;;;1.60;1.50;;;;;;;29.90;49.66;100748.38;5060940;28;66280;-51
2023/07/09 06:59:03;;;;;;;2.45;1.15;;;;;;;29.78;48.99;100732.00;5061086;28;69404;-52
2023/07/09 07:01:35;;;;;;;1.17;1.08;;;;;;;29.84;48.81;100741.97;5061219;28;65213;-60
2023/07/09 07:04:06;;;;;;;2.00;1.25;;;;;;;29.78;49.00;100721.19;5060201;28;69460;-54
2023/07/09 07:06:37;;;;;;;5.03;1.37;;;;;;;29.53;48.51;100690.50;5061905;28;66457;-51
2023/07/09 07:09:08;;;;;;;2.22;1.30;;;;;;;29.76;48.87;100726.00;5044267;28;70694;-54
2023/07/09 07:11:39;;;;;;;1.20;1.08;;;;;;;29.58;48.73;100704.22;5050943;28;66529;-51
2023/07/09 07:14:10;;;;;;;4.00;1.13;;;;;;;29.60;48.65;100712.94;5045367;28;69557;-50
2023/07/09 07:16:41;;;;;;;1.48;0.90;;;;;;;29.72;49.40;100723.91;5060698;28;66791;-50
2023/07/09 07:19:12;;;;;;;1.77;1.50;;;;;;;29.67;49.07;100716.47;5061548;28;69883;-51
2023/07/09 07:21:44;;;;;;;2.47;1.30;;;;;;;29.62;48.51;100702.75;5062513;28;65513;-51
2023/07/09 07:24:15;;;;;;;1.47;1.17;;;;;;;29.59;48.38;100700.47;5061453;28;69757;-51
2023/07/09 07:26:46;;;;;;;1.50;1.30;;;;;;;29.56;48.42;100681.97;5061748;28;66209;-53
2023/07/09 07:29:17;;;;;;;1.93;1.30;;;;;;;29.64;48.52;100710.66;5060558;28;69887;-51
2023/07/09 07:31:48;;;;;;;1.55;1.45;;;;;;;29.55;48.34;100705.47;5042010;28;66680;-52
2023/07/09 07:34:19;;;;;;;1.30;1.20;;;;;;;29.55;48.80;100699.22;5061773;28;69581;-51
2023/07/09 07:36:50;;;;;;;1.08;0.98;;;;;;;29.67;49.82;100719.19;5042905;28;66136;-51
2023/07/09 07:39:22;;;;;;;4.95;1.30;;;;;;;29.76;50.94;100709.75;5059046;28;70662;-50
2023/07/09 07:41:55;;;;;;;5.03;1.67;;;;;;;29.90;54.28;100709.69;5060294;28;66127;-49
2023/07/09 07:44:26;;;;;;;2.72;1.65;;;;;;;30.25;57.42;100731.72;5059924;28;69752;-49
2023/07/09 07:46:57;;;;;;;8.05;2.08;;;;;;;30.33;58.89;100722.50;5055466;28;66288;-50
2023/07/09 07:49:28;;;;;;;2.92;1.65;;;;;;;30.13;59.73;100669.34;5060429;28;70088;-48
2023/07/09 07:52:03;;;;;;;8.63;2.33;;;;;;;30.53;62.65;100703.41;5052860;28;65598;-46
2023/07/09 07:54:34;;;;;;;2.97;2.03;;;;;;;30.61;64.38;100709.34;5059351;28;69622;-47
2023/07/09 07:57:08;;;;;;;3.33;2.00;;;;;;;30.32;65.17;100645.09;5058477;28;66073;-48
2023/07/09 07:59:40;;;;;;;5.00;2.15;;;;;;;30.80;65.43;100704.00;5054954;28;70647;-46
2023/07/09 08:02:13;;;;;;;4.07;2.55;;;;;;;30.27;65.95;100606.00;5041804;28;65833;-48
2023/07/09 08:04:44;;;;;;;4.32;2.65;;;;;;;30.90;66.45;100699.72;5051784;28;70130;-48
2023/07/09 08:07:17;;;;;;;4.82;2.35;;;;;;;30.72;67.32;100665.28;5060750;28;66044;-49
2023/07/09 08:09:48;;;;;;;2.30;2.03;;;;;;;30.94;67.27;100691.97;5059164;28;69150;-46
2023/07/09 08:12:19;;;;;;;2.55;2.35;;;;;;;30.98;67.27;100693.19;5061629;28;66264;-47
2023/07/09 08:14:50;;;;;;;5.80;3.28;;;;;;;31.03;67.38;100690.59;5061519;28;69920;-47
2023/07/09 08:17:21;;;;;;;4.13;2.95;;;;;;;31.04;68.14;100695.00;5060771;28;66203;-47
2023/07/09 08:19:54;;;;;;;2.93;2.73;;;;;;;31.10;67.84;100701.38;5058079;28;70113;-47
2023/07/09 08:22:25;;;;;;;3.58;3.03;;;;;;;31.06;68.01;100703.69;5060263;28;65831;-47
2023/07/09 08:24:56;;;;;;;4.53;2.50;;;;;;;30.96;68.48;100689.06;5061301;28;69217;-47
2023/07/09 08:27:27;;;;;;;3.17;2.97;;;;;;;31.13;68.43;100712.59;5035901;28;66526;-46
2023/07/09 08:29:58;;;;;;;5.68;2.78;;;;;;;31.13;68.72;100718.00;5059680;28;69922;-47
2023/07/09 08:32:29;;;;;;;3.22;2.88;;;;;;;31.20;68.79;100720.63;5056514;28;65140;-47
2023/07/09 08:35:01;;;;;;;9.53;3.23;;;;;;;31.20;68.76;100717.09;5055459;28;70679;-47
2023/07/09 08:37:36;;;;;;;3.33;3.03;;;;;;;31.07;68.99;100691.84;5056545;28;65588;-47
2023/07/09 08:40:13;;;;;;;4.07;3.13;;;;;;;31.17;69.47;100718.38;5059353;28;70204;-49
2023/07/09 08:42:46;;;;;;;3.55;3.22;;;;;;;30.59;69.31;100624.00;5061842;28;66279;-47
2023/07/09 08:45:57;;;;;;;3.47;3.17;;;;;;;30.30;69.66;100582.25;5059384;28;69959;-46
2023/07/09 08:48:33;;;;;;;3.95;3.05;;;;;;;30.71;69.74;100636.56;5061231;28;66407;-49
2023/07/09 08:51:30;;;;;;;3.63;2.83;;;;;;;31.23;69.69;100728.34;5059384;28;70566;-49
2023/07/09 08:54:01;;;;;;;3.30;3.10;;;;;;;31.25;69.92;100728.91;5055312;28;65823;-49
2023/07/09 08:56:34;;;;;;;3.50;3.17;;;;;;;31.18;69.58;100714.63;5056636;28;70277;-47
2023/07/09 08:59:05;;;;;;;2.97;2.78;;;;;;;31.31;70.08;100735.31;5064790;28;66679;-49
2023/07/09 09:01:50;;;;;;;3.13;2.92;;;;;;;30.65;70.00;100623.13;5054480;28;69898;-49
2023/07/09 09:04:31;;;;;;;3.22;3.03;;;;;;;31.30;70.01;100739.09;5051249;28;66315;-53
2023/07/09 09:07:28;;;;;;;4.18;3.08;;;;;;;30.69;70.05;100635.97;5036233;28;70291;-48
2023/07/09 09:10:03;;;;;;;2.90;2.70;;;;;;;30.81;70.00;100648.78;5056075;28;65559;-50
2023/07/09 09:12:57;;;;;;;3.20;2.90;;;;;;;31.32;70.72;100737.81;5059005;28;69799;-48
2023/07/09 09:15:28;;;;;;;2.90;2.70;;;;;;;31.33;70.26;100727.78;5041171;28;65915;-47
2023/07/09 09:18:28;;;;;;;3.30;3.10;;;;;;;31.29;70.33;100732.03;5053614;28;69649;-50
2023/07/09 09:21:15;;;;;;;5.10;3.20;;;;;;;30.75;70.30;100638.81;5060956;28;66037;-49
2023/07/09 09:23:56;;;;;;;3.28;2.92;;;;;;;30.86;70.79;100652.47;5053705;28;70542;-47
2023/07/09 09:26:32;;;;;;;3.40;3.10;;;;;;;31.33;70.34;100716.94;5061878;28;66379;-47
2023/07/09 09:29:13;;;;;;;4.72;3.55;;;;;;;31.33;70.37;100716.94;5040881;28;69127;-49
2023/07/09 09:31:50;;;;;;;3.65;3.35;;;;;;;31.21;70.58;100686.25;5029606;28;66181;-48
2023/07/09 09:34:27;;;;;;;3.83;3.53;;;;;;;31.35;70.77;100712.13;5025155;28;70262;-49
2023/07/09 09:36:59;;;;;;;3.58;3.30;;;;;;;31.24;70.54;100696.63;5059403;28;65594;-48
2023/07/09 09:39:31;;;;;;;3.35;3.05;;;;;;;31.35;70.78;100714.84;5042222;28;69136;-47
2023/07/09 09:42:03;;;;;;;4.65;2.90;;;;;;;31.34;71.17;100715.88;5038577;28;65395;-47
2023/07/09 09:44:34;;;;;;;3.60;3.30;;;;;;;31.08;71.00;100666.38;5058054;28;70286;-48
2023/07/09 09:47:05;;;;;;;3.67;3.25;;;;;;;31.38;71.37;100709.00;5058352;28;66166;-45
2023/07/09 09:49:43;;;;;;;3.97;3.67;;;;;;;31.01;71.69;100660.22;5054779;28;69977;-45
2023/07/09 09:52:18;;;;;;;4.10;3.80;;;;;;;30.83;71.50;100625.03;5055020;28;66178;-47
2023/07/09 09:55:01;;;;;;;4.97;4.68;;;;;;;30.81;71.35;100627.13;5049151;28;70557;-46
2023/07/09 09:57:32;;;;;;;5.20;4.80;;;;;;;31.39;71.55;100726.91;5057703;28;65678;-45
2023/07/09 10:00:06;;;;;;;4.60;4.20;;;;;;;31.24;71.41;100702.06;5056946;28;69507;-46
2023/07/09 10:02:41;;;;;;;4.57;4.18;;;;;;;31.37;71.63;100734.44;5056509;28;66963;-46
2023/07/09 10:05:19;;;;;;;11.63;4.90;;;;;;;30.95;71.53;100663.81;5060881;28;70176;-46
2023/07/09 10:08:16;;;;;;;5.95;5.15;;;;;;;31.37;71.81;100739.84;5057394;28;66053;-46
2023/07/09 10:10:50;;;;;;;8.05;5.55;;;;;;;31.43;71.78;100733.53;5059001;28;70325;-46
2023/07/09 10:13:30;;;;;;;7.45;5.57;;;;;;;31.21;72.11;100708.75;5057790;28;67077;-47
2023/07/09 10:16:25;;;;;;;9.18;5.50;;;;;;;31.46;72.29;100745.81;5060472;28;69301;-47
2023/07/09 10:19:23;;;;;;;8.57;5.93;;;;;;;31.43;72.45;100740.84;5058439;28;66163;-47
2023/07/09 10:22:02;;;;;;;8.23;5.57;;;;;;;31.48;72.91;100759.94;5059656;28;70270;-46
2023/07/09 10:25:07;;;;;;;8.93;5.28;;;;;;;31.37;72.98;100770.53;5058746;28;66340;-45
2023/07/09 10:27:45;;;;;;;14.13;5.50;;;;;;;31.51;72.97;100773.03;5022248;28;69933;-47
2023/07/09 10:30:47;;;;;;;5.53;4.93;;;;;;;31.42;72.97;100785.25;5054853;28;66222;-46
2023/07/09 10:33:59;;;;;;;7.83;5.00;;;;;;;31.33;73.07;100771.97;5057932;28;69973;-47
2023/07/09 10:36:58;;;;;;;6.03;5.20;;;;;;;31.46;73.14;100797.31;5057797;28;66064;-48
2023/07/09 10:39:57;;;;;;;5.60;5.20;;;;;;;31.39;73.41;100797.38;5059860;28;70751;-46
2023/07/09 10:42:40;;;;;;;6.18;5.53;;;;;;;30.97;72.94;100713.19;5058593;28;66182;-46
2023/07/09 10:45:26;;;;;;;5.32;4.70;;;;;;;31.44;73.07;100794.00;5056943;28;69462;-47
2023/07/09 10:48:14;;;;;;;6.88;5.60;;;;;;;31.26;72.96;100768.53;5058598;28;65219;-48
2023/07/09 10:50:52;;;;;;;5.95;5.55;;;;;;;31.46;73.41;100803.56;5038387;28;69903;-47
2023/07/09 10:54:13;;;;;;;6.72;5.68;;;;;;;31.36;73.60;100804.06;5061387;28;66425;-48
2023/07/09 10:56:49;;;;;;;6.25;5.68;;;;;;;31.44;73.66;100811.09;4971731;28;69902;-46
2023/07/09 10:59:23;;;;;;;6.63;6.03;;;;;;;31.01;73.46;100737.94;5064744;28;66129;-47
2023/07/09 11:02:18;;;;;;;6.78;5.47;;;;;;;31.39;73.39;100819.06;5073449;28;69550;-47
2023/07/09 11:04:55;;;;;;;5.75;5.40;;;;;;;31.21;73.86;100790.06;5063609;28;66625;-46
2023/07/09 11:07:45;;;;;;;6.30;5.85;;;;;;;31.39;74.15;100835.34;5060719;28;70787;-45
2023/07/09 11:10:22;;;;;;;6.28;5.78;;;;;;;31.52;73.15;100848.75;5060760;28;65583;-48
2023/07/09 11:13:03;;;;;;;10.35;6.28;;;;;;;31.02;73.97;100775.66;5041324;28;69806;-46
2023/07/09 11:15:42;;;;;;;8.13;5.78;;;;;;;31.51;74.04;100852.53;5057531;28;65674;-52
2023/07/09 11:18:25;;;;;;;7.63;6.93;;;;;;;31.37;74.29;100853.69;5029706;28;68065;-47
2023/07/09 11:21:00;;;;;;;6.25;5.85;;;;;;;31.45;74.77;100863.41;5027120;28;66700;-48
2023/07/09 11:24:00;;;;;;;7.40;6.68;;;;;;;31.30;75.22;100864.56;5049950;28;70118;-48
2023/07/09 11:26:33;;;;;;;7.90;6.45;;;;;;;31.38;74.73;100855.38;5059882;28;65404;-45
2023/07/09 11:29:07;;;;;;;9.13;7.32;;;;;;;31.41;74.21;100878.50;5058936;28;70094;-47
2023/07/09 11:31:40;;;;;;;10.40;6.80;;;;;;;30.86;74.87;100793.28;5049072;28;66922;-47
2023/07/09 11:34:17;;;;;;;10.27;7.10;;;;;;;31.41;75.36;100876.59;5042640;28;69572;-47
2023/07/09 11:37:00;;;;;;;10.13;8.30;;;;;;;30.88;75.32;100814.75;5041942;28;65752;-44
2023/07/09 11:39:44;;;;;;;14.63;8.00;;;;;;;31.10;75.71;100853.94;5055868;28;69904;-43
2023/07/09 11:42:31;;;;;;;14.52;7.93;;;;;;;30.76;75.85;100805.66;5033636;28;66511;-44
2023/07/09 11:45:09;;;;;;;11.77;8.90;;;;;;;30.69;75.38;100789.47;5060374;28;69206;-44
2023/07/09 11:47:52;;;;;;;10.75;9.77;;;;;;;31.17;75.20;100872.81;5054318;28;66128;-43
2023/07/09 11:50:28;;;;;;;15.07;8.48;;;;;;;30.72;75.70;100814.22;5052928;28;70082;-45
2023/07/09 11:53:17;;;;;;;11.35;9.48;;;;;;;31.19;75.42;100894.31;5057292;28;65854;-46
2023/07/09 11:55:49;;;;;;;11.25;10.20;;;;;;;31.19;74.86;100900.53;5054528;28;69444;-44
2023/07/09 11:58:20;;;;;;;12.00;10.35;;;;;;;31.01;75.36;100887.78;5057201;28;66069;-44